sensor_id;sensor_type;location;lat;lon;timestamp;pressure;altitude;pressure_sealevel;temperature;humidity
27202;BME280;14717;46.924;15.474;2023-04-03T00:00:39;97995.28;;;6.66;59.58
27202;BME280;14717;46.924;15.474;2023-04-03T00:03:05;98001.63;;;6.35;60.61
27202;BME280;14717;46.924;15.474;2023-04-03T00:05:30;98003.91;;;6.43;61.00
27202;BME280;14717;46.924;15.474;2023-04-03T00:07:56;97991.81;;;6.39;60.14
27202;BME280;14717;46.924;15.474;2023-04-03T00:10:21;97989.59;;;6.36;60.15
27202;BME280;14717;46.924;15.474;2023-04-03T00:12:47;97993.59;;;6.24;60.95
27202;BME280;14717;46.924;15.474;2023-04-03T00:15:12;97990.81;;;6.19;62.16
27202;BME280;14717;46.924;15.474;2023-04-03T00:17:38;97998.09;;;6.04;62.64
27202;BME280;14717;46.924;15.474;2023-04-03T00:20:04;98007.84;;;5.90;62.38
27202;BME280;14717;46.924;15.474;2023-04-03T00:22:30;98002.97;;;5.97;63.71
27202;BME280;14717;46.924;15.474;2023-04-03T00:24:55;98004.59;;;5.98;64.76
27202;BME280;14717;46.924;15.474;2023-04-03T00:27:21;98002.66;;;5.67;63.61
27202;BME280;14717;46.924;15.474;2023-04-03T00:29:46;97998.03;;;5.73;64.13
27202;BME280;14717;46.924;15.474;2023-04-03T00:32:12;98003.66;;;5.83;63.06
27202;BME280;14717;46.924;15.474;2023-04-03T00:34:38;97998.00;;;5.94;62.66
27202;BME280;14717;46.924;15.474;2023-04-03T00:37:03;98008.69;;;5.69;63.34
27202;BME280;14717;46.924;15.474;2023-04-03T00:39:28;98007.28;;;5.67;62.21
27202;BME280;14717;46.924;15.474;2023-04-03T00:41:54;98006.47;;;5.66;63.43
27202;BME280;14717;46.924;15.474;2023-04-03T00:47:11;98000.38;;;5.59;63.46
27202;BME280;14717;46.924;15.474;2023-04-03T00:49:37;98009.81;;;5.47;63.17
27202;BME280;14717;46.924;15.474;2023-04-03T00:52:05;98007.41;;;5.50;65.03
27202;BME280;14717;46.924;15.474;2023-04-03T00:54:32;98010.28;;;5.39;64.70
27202;BME280;14717;46.924;15.474;2023-04-03T00:57:00;98016.16;;;5.26;63.99
27202;BME280;14717;46.924;15.474;2023-04-03T00:59:32;98006.63;;;5.34;64.10
27202;BME280;14717;46.924;15.474;2023-04-03T01:01:59;98018.50;;;5.18;64.18
27202;BME280;14717;46.924;15.474;2023-04-03T01:04:32;98010.69;;;5.26;64.14
27202;BME280;14717;46.924;15.474;2023-04-03T01:07:02;98008.13;;;5.20;65.49
27202;BME280;14717;46.924;15.474;2023-04-03T01:09:28;98011.50;;;5.27;67.41
27202;BME280;14717;46.924;15.474;2023-04-03T01:11:54;98015.72;;;5.13;67.92
27202;BME280;14717;46.924;15.474;2023-04-03T01:14:19;98018.75;;;4.95;68.19
27202;BME280;14717;46.924;15.474;2023-04-03T01:16:54;98017.34;;;4.93;69.07
27202;BME280;14717;46.924;15.474;2023-04-03T01:19:21;98012.78;;;4.98;68.87
27202;BME280;14717;46.924;15.474;2023-04-03T01:22:19;98010.69;;;5.05;68.01
27202;BME280;14717;46.924;15.474;2023-04-03T01:24:49;98013.66;;;5.25;64.12
27202;BME280;14717;46.924;15.474;2023-04-03T01:27:16;98025.63;;;5.19;65.16
27202;BME280;14717;46.924;15.474;2023-04-03T01:29:42;98012.91;;;5.08;65.67
27202;BME280;14717;46.924;15.474;2023-04-03T01:32:08;98013.47;;;5.10;65.63
27202;BME280;14717;46.924;15.474;2023-04-03T01:34:34;98025.31;;;4.94;65.49
27202;BME280;14717;46.924;15.474;2023-04-03T01:36:59;98026.91;;;4.90;65.72
27202;BME280;14717;46.924;15.474;2023-04-03T01:39:24;98032.94;;;4.55;67.38
27202;BME280;14717;46.924;15.474;2023-04-03T01:41:50;98029.34;;;4.70;67.66
27202;BME280;14717;46.924;15.474;2023-04-03T01:44:16;98038.56;;;4.64;66.74
27202;BME280;14717;46.924;15.474;2023-04-03T01:46:41;98033.59;;;4.62;67.80
27202;BME280;14717;46.924;15.474;2023-04-03T01:49:07;98029.69;;;4.58;67.46
27202;BME280;14717;46.924;15.474;2023-04-03T01:51:33;98021.75;;;4.56;67.63
27202;BME280;14717;46.924;15.474;2023-04-03T01:53:58;98028.97;;;4.62;67.90
27202;BME280;14717;46.924;15.474;2023-04-03T01:56:24;98032.44;;;4.58;68.06
27202;BME280;14717;46.924;15.474;2023-04-03T01:58:50;98030.28;;;4.43;68.05
27202;BME280;14717;46.924;15.474;2023-04-03T02:01:15;98027.38;;;4.50;69.19
27202;BME280;14717;46.924;15.474;2023-04-03T02:03:41;98035.75;;;4.43;68.86
27202;BME280;14717;46.924;15.474;2023-04-03T02:06:06;98037.25;;;4.51;69.21
27202;BME280;14717;46.924;15.474;2023-04-03T02:08:32;98028.81;;;4.52;69.42
27202;BME280;14717;46.924;15.474;2023-04-03T02:10:57;98033.88;;;4.44;69.31
27202;BME280;14717;46.924;15.474;2023-04-03T02:13:22;98042.56;;;4.41;69.16
27202;BME280;14717;46.924;15.474;2023-04-03T02:15:48;98053.69;;;4.18;70.13
27202;BME280;14717;46.924;15.474;2023-04-03T02:18:13;98043.97;;;4.27;70.18
27202;BME280;14717;46.924;15.474;2023-04-03T02:20:39;98040.81;;;4.35;70.61
27202;BME280;14717;46.924;15.474;2023-04-03T02:23:05;98041.41;;;4.37;70.49
27202;BME280;14717;46.924;15.474;2023-04-03T02:25:31;98046.53;;;4.01;72.82
27202;BME280;14717;46.924;15.474;2023-04-03T02:27:57;98039.91;;;3.97;73.89
27202;BME280;14717;46.924;15.474;2023-04-03T02:30:22;98030.81;;;4.08;73.30
27202;BME280;14717;46.924;15.474;2023-04-03T02:32:48;98035.00;;;3.82;73.72
27202;BME280;14717;46.924;15.474;2023-04-03T02:35:13;98036.50;;;3.74;74.46
27202;BME280;14717;46.924;15.474;2023-04-03T02:37:39;98039.25;;;3.90;74.16
27202;BME280;14717;46.924;15.474;2023-04-03T02:40:05;98046.91;;;4.04;73.06
27202;BME280;14717;46.924;15.474;2023-04-03T02:42:31;98043.44;;;3.81;72.98
27202;BME280;14717;46.924;15.474;2023-04-03T02:44:56;98046.94;;;3.49;74.53
27202;BME280;14717;46.924;15.474;2023-04-03T02:47:21;98040.94;;;3.63;74.53
27202;BME280;14717;46.924;15.474;2023-04-03T02:49:47;98043.53;;;3.42;74.55
27202;BME280;14717;46.924;15.474;2023-04-03T02:52:13;98040.72;;;3.37;75.72
27202;BME280;14717;46.924;15.474;2023-04-03T02:54:39;98035.34;;;3.42;75.38
27202;BME280;14717;46.924;15.474;2023-04-03T02:57:04;98041.97;;;3.46;74.97
27202;BME280;14717;46.924;15.474;2023-04-03T02:59:29;98042.22;;;3.44;73.91
27202;BME280;14717;46.924;15.474;2023-04-03T03:01:55;98044.88;;;3.56;74.33
27202;BME280;14717;46.924;15.474;2023-04-03T03:04:21;98046.31;;;3.58;71.97
27202;BME280;14717;46.924;15.474;2023-04-03T03:06:47;98044.69;;;3.74;70.20
27202;BME280;14717;46.924;15.474;2023-04-03T03:09:13;98043.50;;;3.70;70.23
27202;BME280;14717;46.924;15.474;2023-04-03T03:11:38;98049.66;;;3.77;70.43
27202;BME280;14717;46.924;15.474;2023-04-03T03:14:04;98049.84;;;3.86;67.79
27202;BME280;14717;46.924;15.474;2023-04-03T03:16:30;98049.50;;;3.83;67.73
27202;BME280;14717;46.924;15.474;2023-04-03T03:18:55;98051.16;;;3.84;67.64
27202;BME280;14717;46.924;15.474;2023-04-03T03:21:21;98038.75;;;3.77;67.91
27202;BME280;14717;46.924;15.474;2023-04-03T03:23:46;98050.16;;;3.74;68.05
27202;BME280;14717;46.924;15.474;2023-04-03T03:26:12;98044.34;;;3.70;69.30
27202;BME280;14717;46.924;15.474;2023-04-03T03:28:38;98043.41;;;3.65;68.45
27202;BME280;14717;46.924;15.474;2023-04-03T03:31:03;98038.03;;;3.70;68.53
27202;BME280;14717;46.924;15.474;2023-04-03T03:33:29;98056.69;;;3.73;68.06
27202;BME280;14717;46.924;15.474;2023-04-03T03:35:55;98058.25;;;3.69;68.95
27202;BME280;14717;46.924;15.474;2023-04-03T03:38:21;98053.19;;;3.61;68.85
27202;BME280;14717;46.924;15.474;2023-04-03T03:40:48;98057.06;;;3.48;69.02
27202;BME280;14717;46.924;15.474;2023-04-03T03:43:14;98055.03;;;3.44;69.42
27202;BME280;14717;46.924;15.474;2023-04-03T03:45:39;98052.97;;;3.51;69.07
27202;BME280;14717;46.924;15.474;2023-04-03T03:48:05;98059.34;;;3.56;69.49
27202;BME280;14717;46.924;15.474;2023-04-03T03:50:30;98056.38;;;3.58;69.14
27202;BME280;14717;46.924;15.474;2023-04-03T03:52:56;98054.22;;;3.60;69.65
27202;BME280;14717;46.924;15.474;2023-04-03T03:55:21;98057.06;;;3.65;69.19
27202;BME280;14717;46.924;15.474;2023-04-03T03:57:47;98056.09;;;3.71;68.38
27202;BME280;14717;46.924;15.474;2023-04-03T04:00:13;98057.78;;;3.72;68.48
27202;BME280;14717;46.924;15.474;2023-04-03T04:02:38;98057.06;;;3.65;68.87
27202;BME280;14717;46.924;15.474;2023-04-03T04:05:04;98064.19;;;3.66;69.04
27202;BME280;14717;46.924;15.474;2023-04-03T04:07:30;98065.16;;;3.60;67.04
27202;BME280;14717;46.924;15.474;2023-04-03T04:09:55;98062.28;;;3.66;65.86
27202;BME280;14717;46.924;15.474;2023-04-03T04:12:22;98061.72;;;3.64;66.02
27202;BME280;14717;46.924;15.474;2023-04-03T04:14:47;98055.63;;;3.74;66.22
27202;BME280;14717;46.924;15.474;2023-04-03T04:17:13;98063.22;;;3.72;64.92
27202;BME280;14717;46.924;15.474;2023-04-03T04:19:39;98060.78;;;3.59;65.59
27202;BME280;14717;46.924;15.474;2023-04-03T04:22:04;98066.88;;;3.49;66.55
27202;BME280;14717;46.924;15.474;2023-04-03T04:24:30;98061.19;;;3.51;67.66
27202;BME280;14717;46.924;15.474;2023-04-03T04:26:55;98063.66;;;3.52;67.73
27202;BME280;14717;46.924;15.474;2023-04-03T04:29:21;98065.66;;;3.57;68.48
27202;BME280;14717;46.924;15.474;2023-04-03T04:31:46;98073.34;;;3.60;67.63
27202;BME280;14717;46.924;15.474;2023-04-03T04:34:12;98071.03;;;3.52;67.07
27202;BME280;14717;46.924;15.474;2023-04-03T04:36:38;98067.78;;;3.55;68.06
27202;BME280;14717;46.924;15.474;2023-04-03T04:39:04;98071.81;;;3.64;66.68
27202;BME280;14717;46.924;15.474;2023-04-03T04:41:30;98068.50;;;3.62;67.18
27202;BME280;14717;46.924;15.474;2023-04-03T04:43:56;98069.19;;;3.69;66.59
27202;BME280;14717;46.924;15.474;2023-04-03T04:46:21;98072.06;;;3.62;67.75
27202;BME280;14717;46.924;15.474;2023-04-03T04:48:47;98063.84;;;3.62;67.02
27202;BME280;14717;46.924;15.474;2023-04-03T04:51:14;98064.88;;;3.73;66.20
27202;BME280;14717;46.924;15.474;2023-04-03T04:53:39;98062.09;;;3.84;65.15
27202;BME280;14717;46.924;15.474;2023-04-03T04:56:05;98069.53;;;3.88;65.81
27202;BME280;14717;46.924;15.474;2023-04-03T04:58:30;98068.41;;;3.84;67.20
27202;BME280;14717;46.924;15.474;2023-04-03T05:01:07;98063.31;;;3.77;67.55
27202;BME280;14717;46.924;15.474;2023-04-03T05:03:33;98074.16;;;3.72;68.31
27202;BME280;14717;46.924;15.474;2023-04-03T05:05:59;98070.31;;;3.73;69.20
27202;BME280;14717;46.924;15.474;2023-04-03T05:08:25;98065.28;;;3.81;69.90
27202;BME280;14717;46.924;15.474;2023-04-03T05:10:50;98071.38;;;3.83;69.78
27202;BME280;14717;46.924;15.474;2023-04-03T05:13:16;98069.31;;;3.90;69.75
27202;BME280;14717;46.924;15.474;2023-04-03T05:15:42;98065.84;;;3.94;70.33
27202;BME280;14717;46.924;15.474;2023-04-03T05:18:07;98074.63;;;3.96;70.40
27202;BME280;14717;46.924;15.474;2023-04-03T05:20:34;98076.94;;;4.04;70.98
27202;BME280;14717;46.924;15.474;2023-04-03T05:23:01;98083.09;;;4.11;71.11
27202;BME280;14717;46.924;15.474;2023-04-03T05:25:26;98083.16;;;4.16;71.70
27202;BME280;14717;46.924;15.474;2023-04-03T05:27:52;98087.06;;;4.20;71.10
27202;BME280;14717;46.924;15.474;2023-04-03T05:30:17;98082.06;;;4.17;71.44
27202;BME280;14717;46.924;15.474;2023-04-03T05:32:43;98089.94;;;4.14;70.72
27202;BME280;14717;46.924;15.474;2023-04-03T05:35:08;98095.75;;;4.17;71.72
27202;BME280;14717;46.924;15.474;2023-04-03T05:37:34;98090.69;;;4.25;71.44
27202;BME280;14717;46.924;15.474;2023-04-03T05:40:00;98085.91;;;4.32;72.08
27202;BME280;14717;46.924;15.474;2023-04-03T05:42:26;98098.31;;;4.40;70.89
27202;BME280;14717;46.924;15.474;2023-04-03T05:44:51;98098.75;;;4.48;70.23
27202;BME280;14717;46.924;15.474;2023-04-03T05:47:18;98100.75;;;4.53;70.90
27202;BME280;14717;46.924;15.474;2023-04-03T05:49:44;98096.25;;;4.47;71.70
27202;BME280;14717;46.924;15.474;2023-04-03T05:52:28;98102.91;;;4.51;71.18
27202;BME280;14717;46.924;15.474;2023-04-03T05:54:54;98101.41;;;4.60;71.44
27202;BME280;14717;46.924;15.474;2023-04-03T05:57:19;98102.03;;;4.66;70.30
27202;BME280;14717;46.924;15.474;2023-04-03T05:59:46;98114.66;;;4.67;71.36
27202;BME280;14717;46.924;15.474;2023-04-03T06:02:15;98116.06;;;4.70;71.90
27202;BME280;14717;46.924;15.474;2023-04-03T06:04:41;98109.25;;;4.72;70.87
27202;BME280;14717;46.924;15.474;2023-04-03T06:07:07;98107.34;;;4.89;70.09
27202;BME280;14717;46.924;15.474;2023-04-03T06:09:35;98114.63;;;5.00;71.29
27202;BME280;14717;46.924;15.474;2023-04-03T06:12:00;98108.16;;;5.06;69.91
27202;BME280;14717;46.924;15.474;2023-04-03T06:14:26;98107.44;;;5.15;72.78
27202;BME280;14717;46.924;15.474;2023-04-03T06:16:52;98096.25;;;5.17;72.17
27202;BME280;14717;46.924;15.474;2023-04-03T06:19:18;98088.16;;;5.27;70.57
27202;BME280;14717;46.924;15.474;2023-04-03T06:21:43;98096.69;;;5.51;66.60
27202;BME280;14717;46.924;15.474;2023-04-03T06:24:09;98091.59;;;5.81;64.07
27202;BME280;14717;46.924;15.474;2023-04-03T06:26:37;98102.22;;;5.99;62.86
27202;BME280;14717;46.924;15.474;2023-04-03T06:29:02;98094.22;;;6.19;61.28
27202;BME280;14717;46.924;15.474;2023-04-03T06:31:28;98102.56;;;6.34;61.56
27202;BME280;14717;46.924;15.474;2023-04-03T06:33:53;98099.94;;;6.43;60.35
27202;BME280;14717;46.924;15.474;2023-04-03T06:36:20;98102.75;;;6.53;61.11
27202;BME280;14717;46.924;15.474;2023-04-03T06:38:46;98097.34;;;6.63;58.69
27202;BME280;14717;46.924;15.474;2023-04-03T06:41:11;98097.13;;;6.70;58.88
27202;BME280;14717;46.924;15.474;2023-04-03T06:43:37;98100.47;;;6.77;57.53
27202;BME280;14717;46.924;15.474;2023-04-03T06:46:03;98107.41;;;6.84;56.21
27202;BME280;14717;46.924;15.474;2023-04-03T06:48:29;98101.44;;;6.92;56.43
27202;BME280;14717;46.924;15.474;2023-04-03T06:50:54;98105.28;;;6.96;57.70
27202;BME280;14717;46.924;15.474;2023-04-03T06:53:20;98102.59;;;7.01;54.99
27202;BME280;14717;46.924;15.474;2023-04-03T06:55:46;98105.41;;;7.11;55.36
27202;BME280;14717;46.924;15.474;2023-04-03T06:58:12;98110.13;;;7.20;55.48
27202;BME280;14717;46.924;15.474;2023-04-03T07:00:38;98105.47;;;7.20;54.15
27202;BME280;14717;46.924;15.474;2023-04-03T07:03:04;98117.09;;;7.37;54.72
27202;BME280;14717;46.924;15.474;2023-04-03T07:05:29;98111.13;;;7.50;53.82
27202;BME280;14717;46.924;15.474;2023-04-03T07:07:55;98107.94;;;7.73;52.29
27202;BME280;14717;46.924;15.474;2023-04-03T07:10:21;98118.41;;;7.81;52.74
27202;BME280;14717;46.924;15.474;2023-04-03T07:12:46;98115.06;;;7.69;53.40
27202;BME280;14717;46.924;15.474;2023-04-03T07:15:12;98117.22;;;7.62;53.72
27202;BME280;14717;46.924;15.474;2023-04-03T07:17:38;98114.44;;;7.57;54.27
27202;BME280;14717;46.924;15.474;2023-04-03T07:20:04;98122.16;;;7.60;54.55
27202;BME280;14717;46.924;15.474;2023-04-03T07:22:30;98124.34;;;7.58;54.25
27202;BME280;14717;46.924;15.474;2023-04-03T07:24:55;98124.34;;;7.58;53.34
27202;BME280;14717;46.924;15.474;2023-04-03T07:27:21;98130.38;;;7.55;52.82
27202;BME280;14717;46.924;15.474;2023-04-03T07:29:46;98129.56;;;8.10;52.62
27202;BME280;14717;46.924;15.474;2023-04-03T07:32:14;98132.38;;;8.40;51.59
27202;BME280;14717;46.924;15.474;2023-04-03T07:34:40;98143.41;;;8.40;53.22
27202;BME280;14717;46.924;15.474;2023-04-03T07:37:05;98125.78;;;8.66;50.84
27202;BME280;14717;46.924;15.474;2023-04-03T07:39:31;98129.94;;;8.98;51.07
27202;BME280;14717;46.924;15.474;2023-04-03T07:41:57;98127.44;;;9.26;49.54
27202;BME280;14717;46.924;15.474;2023-04-03T07:44:22;98131.88;;;9.07;48.80
27202;BME280;14717;46.924;15.474;2023-04-03T07:46:48;98132.97;;;9.01;49.86
27202;BME280;14717;46.924;15.474;2023-04-03T07:49:14;98137.09;;;8.54;49.01
27202;BME280;14717;46.924;15.474;2023-04-03T07:51:39;98132.38;;;8.35;50.08
27202;BME280;14717;46.924;15.474;2023-04-03T07:54:05;98127.38;;;8.22;50.99
27202;BME280;14717;46.924;15.474;2023-04-03T07:56:30;98140.63;;;8.30;51.67
27202;BME280;14717;46.924;15.474;2023-04-03T07:58:56;98147.47;;;8.28;50.44
27202;BME280;14717;46.924;15.474;2023-04-03T08:01:22;98139.19;;;8.13;50.26
27202;BME280;14717;46.924;15.474;2023-04-03T08:03:47;98142.22;;;8.21;49.68
27202;BME280;14717;46.924;15.474;2023-04-03T08:06:13;98142.25;;;8.31;51.30
27202;BME280;14717;46.924;15.474;2023-04-03T08:08:40;98142.72;;;8.08;50.02
27202;BME280;14717;46.924;15.474;2023-04-03T08:11:05;98145.47;;;8.08;50.95
27202;BME280;14717;46.924;15.474;2023-04-03T08:13:32;98142.19;;;8.11;50.72
27202;BME280;14717;46.924;15.474;2023-04-03T08:15:57;98145.56;;;8.23;51.41
27202;BME280;14717;46.924;15.474;2023-04-03T08:18:24;98139.19;;;8.18;50.37
27202;BME280;14717;46.924;15.474;2023-04-03T08:20:50;98143.56;;;8.09;48.73
27202;BME280;14717;46.924;15.474;2023-04-03T08:23:16;98147.13;;;8.09;49.89
27202;BME280;14717;46.924;15.474;2023-04-03T08:25:42;98154.38;;;8.25;49.05
27202;BME280;14717;46.924;15.474;2023-04-03T08:28:09;98141.66;;;8.14;47.05
27202;BME280;14717;46.924;15.474;2023-04-03T08:30:35;98146.34;;;8.14;47.80
27202;BME280;14717;46.924;15.474;2023-04-03T08:33:02;98157.03;;;8.05;46.31
27202;BME280;14717;46.924;15.474;2023-04-03T08:35:28;98148.81;;;8.10;46.52
27202;BME280;14717;46.924;15.474;2023-04-03T08:37:53;98144.94;;;8.11;47.11
27202;BME280;14717;46.924;15.474;2023-04-03T08:40:19;98149.88;;;8.09;47.29
27202;BME280;14717;46.924;15.474;2023-04-03T08:45:53;98147.75;;;8.26;48.23
27202;BME280;14717;46.924;15.474;2023-04-03T08:48:35;98159.06;;;8.35;47.15
27202;BME280;14717;46.924;15.474;2023-04-03T08:51:05;98157.66;;;8.27;46.84
27202;BME280;14717;46.924;15.474;2023-04-03T08:53:40;98147.78;;;8.41;47.33
27202;BME280;14717;46.924;15.474;2023-04-03T08:56:11;98151.09;;;8.38;47.23
27202;BME280;14717;46.924;15.474;2023-04-03T08:58:52;98150.03;;;8.59;48.03
27202;BME280;14717;46.924;15.474;2023-04-03T09:01:36;98153.28;;;8.46;47.30
27202;BME280;14717;46.924;15.474;2023-04-03T09:04:12;98158.25;;;8.44;46.88
27202;BME280;14717;46.924;15.474;2023-04-03T09:06:39;98152.78;;;8.74;48.72
27202;BME280;14717;46.924;15.474;2023-04-03T09:09:39;98156.66;;;8.63;47.41
27202;BME280;14717;46.924;15.474;2023-04-03T09:15:04;98160.50;;;8.57;43.96
27202;BME280;14717;46.924;15.474;2023-04-03T09:17:58;98150.59;;;8.76;45.19
27202;BME280;14717;46.924;15.474;2023-04-03T09:20:39;98162.19;;;8.83;42.87
27202;BME280;14717;46.924;15.474;2023-04-03T09:23:19;98160.75;;;8.60;42.14
27202;BME280;14717;46.924;15.474;2023-04-03T09:25:47;98156.41;;;8.84;43.27
27202;BME280;14717;46.924;15.474;2023-04-03T09:28:14;98151.72;;;8.90;42.99
27202;BME280;14717;46.924;15.474;2023-04-03T09:30:40;98149.50;;;9.06;43.23
27202;BME280;14717;46.924;15.474;2023-04-03T09:33:06;98159.44;;;9.07;40.80
27202;BME280;14717;46.924;15.474;2023-04-03T09:35:35;98155.56;;;9.08;41.93
27202;BME280;14717;46.924;15.474;2023-04-03T09:38:16;98162.72;;;9.19;41.75
27202;BME280;14717;46.924;15.474;2023-04-03T09:40:51;98163.81;;;9.13;39.87
27202;BME280;14717;46.924;15.474;2023-04-03T09:43:30;98148.88;;;9.54;42.41
27202;BME280;14717;46.924;15.474;2023-04-03T09:46:16;98147.25;;;9.43;41.21
27202;BME280;14717;46.924;15.474;2023-04-03T09:48:50;98151.16;;;8.92;39.51
27202;BME280;14717;46.924;15.474;2023-04-03T09:51:16;98144.53;;;8.93;39.45
27202;BME280;14717;46.924;15.474;2023-04-03T09:53:43;98143.44;;;9.09;40.56
27202;BME280;14717;46.924;15.474;2023-04-03T09:58:43;98135.44;;;9.13;40.20
27202;BME280;14717;46.924;15.474;2023-04-03T10:06:32;98122.59;;;9.96;41.60
27202;BME280;14717;46.924;15.474;2023-04-03T10:09:15;98127.28;;;10.43;42.07
27202;BME280;14717;46.924;15.474;2023-04-03T10:14:31;98112.81;;;10.13;41.20
27202;BME280;14717;46.924;15.474;2023-04-03T10:19:47;98107.28;;;10.18;38.22
27202;BME280;14717;46.924;15.474;2023-04-03T10:22:19;98121.03;;;9.55;38.75
27202;BME280;14717;46.924;15.474;2023-04-03T10:24:52;98127.44;;;9.21;40.91
27202;BME280;14717;46.924;15.474;2023-04-03T10:30:08;98125.50;;;9.17;40.18
27202;BME280;14717;46.924;15.474;2023-04-03T10:32:48;98120.53;;;9.33;40.41
27202;BME280;14717;46.924;15.474;2023-04-03T10:38:28;98117.47;;;9.55;39.03
27202;BME280;14717;46.924;15.474;2023-04-03T10:41:00;98106.72;;;10.21;38.44
27202;BME280;14717;46.924;15.474;2023-04-03T10:43:43;98121.81;;;9.71;38.10
27202;BME280;14717;46.924;15.474;2023-04-03T10:53:57;98119.72;;;9.03;39.46
27202;BME280;14717;46.924;15.474;2023-04-03T11:01:46;98100.03;;;9.64;38.88
27202;BME280;14717;46.924;15.474;2023-04-03T11:04:16;98092.50;;;9.89;38.71
27202;BME280;14717;46.924;15.474;2023-04-03T11:06:44;98101.19;;;9.48;37.95
27202;BME280;14717;46.924;15.474;2023-04-03T11:09:19;98105.06;;;9.47;38.42
27202;BME280;14717;46.924;15.474;2023-04-03T11:11:47;98092.69;;;9.35;39.17
27202;BME280;14717;46.924;15.474;2023-04-03T11:14:35;98102.22;;;9.72;40.65
27202;BME280;14717;46.924;15.474;2023-04-03T11:22:33;98091.50;;;9.56;40.37
27202;BME280;14717;46.924;15.474;2023-04-03T11:25:03;98082.97;;;9.52;39.47
27202;BME280;14717;46.924;15.474;2023-04-03T11:27:38;98075.56;;;9.38;39.68
27202;BME280;14717;46.924;15.474;2023-04-03T11:30:09;98088.28;;;9.24;39.54
27202;BME280;14717;46.924;15.474;2023-04-03T11:33:03;98095.50;;;9.15;39.17
27202;BME280;14717;46.924;15.474;2023-04-03T11:35:31;98094.38;;;9.11;40.28
27202;BME280;14717;46.924;15.474;2023-04-03T11:38:00;98092.16;;;9.08;39.87
27202;BME280;14717;46.924;15.474;2023-04-03T11:40:37;98088.59;;;9.08;40.46
27202;BME280;14717;46.924;15.474;2023-04-03T11:43:20;98078.66;;;9.12;40.62
27202;BME280;14717;46.924;15.474;2023-04-03T11:45:53;98081.09;;;9.33;40.72
27202;BME280;14717;46.924;15.474;2023-04-03T11:50:58;98072.81;;;9.38;41.59
27202;BME280;14717;46.924;15.474;2023-04-03T11:53:30;98079.47;;;9.32;39.96
27202;BME280;14717;46.924;15.474;2023-04-03T11:56:00;98076.16;;;9.30;39.23
27202;BME280;14717;46.924;15.474;2023-04-03T11:58:27;98074.53;;;9.14;39.28
27202;BME280;14717;46.924;15.474;2023-04-03T12:08:55;98065.44;;;9.19;40.13
27202;BME280;14717;46.924;15.474;2023-04-03T12:11:22;98065.97;;;9.21;39.79
27202;BME280;14717;46.924;15.474;2023-04-03T12:21:16;98044.75;;;9.21;38.55
27202;BME280;14717;46.924;15.474;2023-04-03T12:45:40;98045.47;;;10.14;38.68
27202;BME280;14717;46.924;15.474;2023-04-03T12:48:16;98030.94;;;9.89;37.63
27202;BME280;14717;46.924;15.474;2023-04-03T12:50:45;98025.03;;;10.15;38.72
27202;BME280;14717;46.924;15.474;2023-04-03T12:56:27;98023.75;;;10.03;37.49
27202;BME280;14717;46.924;15.474;2023-04-03T12:58:56;98023.63;;;9.70;37.91
27202;BME280;14717;46.924;15.474;2023-04-03T13:01:37;98025.38;;;9.46;37.82
27202;BME280;14717;46.924;15.474;2023-04-03T13:04:02;98019.03;;;9.45;37.77
27202;BME280;14717;46.924;15.474;2023-04-03T13:06:37;98013.84;;;9.29;38.23
27202;BME280;14717;46.924;15.474;2023-04-03T13:09:03;98024.09;;;9.24;37.77
27202;BME280;14717;46.924;15.474;2023-04-03T13:11:34;98022.06;;;9.44;39.56
27202;BME280;14717;46.924;15.474;2023-04-03T13:14:03;98031.41;;;9.48;38.96
27202;BME280;14717;46.924;15.474;2023-04-03T13:16:31;98023.47;;;9.36;38.59
27202;BME280;14717;46.924;15.474;2023-04-03T13:18:57;98024.78;;;9.59;37.41
27202;BME280;14717;46.924;15.474;2023-04-03T13:21:28;98026.44;;;10.13;39.29
27202;BME280;14717;46.924;15.474;2023-04-03T13:23:58;98022.84;;;10.17;37.40
27202;BME280;14717;46.924;15.474;2023-04-03T13:26:28;98017.03;;;10.14;37.18
27202;BME280;14717;46.924;15.474;2023-04-03T13:29:02;98021.84;;;9.93;36.38
27202;BME280;14717;46.924;15.474;2023-04-03T13:31:34;98017.50;;;9.73;36.87
27202;BME280;14717;46.924;15.474;2023-04-03T13:34:12;98019.56;;;9.47;36.96
27202;BME280;14717;46.924;15.474;2023-04-03T13:37:05;98014.84;;;9.53;36.88
27202;BME280;14717;46.924;15.474;2023-04-03T13:39:37;97998.28;;;9.58;37.37
27202;BME280;14717;46.924;15.474;2023-04-03T13:42:28;98015.13;;;9.61;37.20
27202;BME280;14717;46.924;15.474;2023-04-03T13:47:40;98007.19;;;9.45;36.14
27202;BME280;14717;46.924;15.474;2023-04-03T13:50:14;97998.22;;;9.73;36.75
27202;BME280;14717;46.924;15.474;2023-04-03T13:52:52;97980.31;;;9.70;36.76
27202;BME280;14717;46.924;15.474;2023-04-03T13:55:27;97998.22;;;9.68;36.93
27202;BME280;14717;46.924;15.474;2023-04-03T13:58:16;97999.41;;;9.57;36.73
27202;BME280;14717;46.924;15.474;2023-04-03T14:03:32;97995.09;;;9.84;35.75
27202;BME280;14717;46.924;15.474;2023-04-03T14:05:57;97987.13;;;9.82;36.35
27202;BME280;14717;46.924;15.474;2023-04-03T14:08:23;97986.91;;;9.69;37.33
27202;BME280;14717;46.924;15.474;2023-04-03T14:10:49;97987.84;;;9.55;38.70
27202;BME280;14717;46.924;15.474;2023-04-03T14:13:17;97981.47;;;9.59;39.04
27202;BME280;14717;46.924;15.474;2023-04-03T14:15:44;97976.91;;;9.35;37.28
27202;BME280;14717;46.924;15.474;2023-04-03T14:18:12;97983.16;;;9.50;39.22
27202;BME280;14717;46.924;15.474;2023-04-03T14:20:38;97983.31;;;9.74;38.77
27202;BME280;14717;46.924;15.474;2023-04-03T14:23:03;97983.06;;;9.70;38.17
27202;BME280;14717;46.924;15.474;2023-04-03T14:25:29;97983.03;;;9.75;37.68
27202;BME280;14717;46.924;15.474;2023-04-03T14:27:55;97986.31;;;9.77;37.05
27202;BME280;14717;46.924;15.474;2023-04-03T14:30:29;97983.16;;;9.55;36.55
27202;BME280;14717;46.924;15.474;2023-04-03T14:32:56;97985.16;;;9.40;37.12
27202;BME280;14717;46.924;15.474;2023-04-03T14:35:23;97977.44;;;9.37;37.31
27202;BME280;14717;46.924;15.474;2023-04-03T14:37:49;97972.91;;;9.61;38.79
27202;BME280;14717;46.924;15.474;2023-04-03T14:40:21;97971.91;;;9.90;37.11